<?xml version="1.0" encoding="UTF-8" standalone="no" ?>
<gpx xmlns="http://www.topografix.com/GPX/1/1" xmlns:xsi="http://www.w3.org/2001/XMLSchema-instance" xsi:schemaLocation="http://www.topografix.com/GPX/1/1 http://www.topografix.com/GPX/1/1/gpx.xsd" version="1.1" creator="VisuGPX - https://www.visugpx.com">
  <metadata>
    <name>SFL_La chapelle par les Moulins_2013-08-10</name>
    <desc><![CDATA[SFL_La chapelle par les Moulins_2013-08-10]]></desc>
  </metadata>
  <trk>
    <name><![CDATA[2013-08-10 10:50]]></name>
    <desc><![CDATA[<h1>OruxMaps</h1><br /><hr align="center" width="480" style="height: 2px; width: 517px"/><h2>Nom: 2013-08-10 10:50</h2><br /><p>Temps de départ: 08/10/2013 10:52</p><p>Temps d'arrivée: 08/10/2013 12:22</p><p>Distance: 14,2 km (01:30)</p><p>Temps déplacement: 01:06</p><p>Vitesse moyenne: 9,4 km/h</p><p>Vitesse moyenne: 12,8 km/h</p><p>Vitess Max.: 59,5 km/h</p><p>Altitude minimale: 470 m</p><p>Altitude maximale: 1641 m</p><p>Vitesse d'élévation: 528,7 m/h</p><p>Vitesse de descente: -1294,7 m/h</p><p>Gain Altitude: 132 m</p><p>Perte Altitude: -1257 m</p><p>Temps d'élévation: 00:15</p><p>Temps de descente: 00:58</p><hr align="center" width="480" style="height: 2px; width: 517px"/>]]></desc>
    <trkseg>
      <trkpt lat="45.41695" lon="6.36235">
        <ele>1641.81</ele>
        <time>2013-08-10T08:52:12Z</time>
      </trkpt>
      <trkpt lat="45.41717" lon="6.3622">
        <ele>1638.47</ele>
        <time>2013-08-10T08:52:17Z</time>
      </trkpt>
      <trkpt lat="45.41735" lon="6.36214">
        <ele>1610.03</ele>
        <time>2013-08-10T08:53:09Z</time>
      </trkpt>
      <trkpt lat="45.41754" lon="6.36204">
        <ele>1608.6</ele>
        <time>2013-08-10T08:53:16Z</time>
      </trkpt>
      <trkpt lat="45.41762" lon="6.36179">
        <ele>1605.27</ele>
        <time>2013-08-10T08:53:25Z</time>
      </trkpt>
      <trkpt lat="45.41781" lon="6.36177">
        <ele>1595.66</ele>
        <time>2013-08-10T08:53:30Z</time>
      </trkpt>
      <trkpt lat="45.41801" lon="6.36177">
        <ele>1587.62</ele>
        <time>2013-08-10T08:53:34Z</time>
      </trkpt>
      <trkpt lat="45.41821" lon="6.36172">
        <ele>1583.98</ele>
        <time>2013-08-10T08:53:39Z</time>
      </trkpt>
      <trkpt lat="45.41814" lon="6.36148">
        <ele>1574.99</ele>
        <time>2013-08-10T08:53:50Z</time>
      </trkpt>
      <trkpt lat="45.41803" lon="6.36121">
        <ele>1572.36</ele>
        <time>2013-08-10T08:53:57Z</time>
      </trkpt>
      <trkpt lat="45.41811" lon="6.36097">
        <ele>1569.56</ele>
        <time>2013-08-10T08:54:05Z</time>
      </trkpt>
      <trkpt lat="45.41831" lon="6.36111">
        <ele>1562.92</ele>
        <time>2013-08-10T08:54:19Z</time>
      </trkpt>
      <trkpt lat="45.41847" lon="6.36125">
        <ele>1556.3</ele>
        <time>2013-08-10T08:54:23Z</time>
      </trkpt>
      <trkpt lat="45.41866" lon="6.36126">
        <ele>1552.19</ele>
        <time>2013-08-10T08:54:31Z</time>
      </trkpt>
      <trkpt lat="45.41872" lon="6.36096">
        <ele>1551.41</ele>
        <time>2013-08-10T08:54:37Z</time>
      </trkpt>
      <trkpt lat="45.41873" lon="6.3607">
        <ele>1549.68</ele>
        <time>2013-08-10T08:54:41Z</time>
      </trkpt>
      <trkpt lat="45.4188" lon="6.36045">
        <ele>1544.56</ele>
        <time>2013-08-10T08:54:47Z</time>
      </trkpt>
      <trkpt lat="45.4188" lon="6.36017">
        <ele>1541.37</ele>
        <time>2013-08-10T08:55:02Z</time>
      </trkpt>
      <trkpt lat="45.41878" lon="6.35989">
        <ele>1539.94</ele>
        <time>2013-08-10T08:55:11Z</time>
      </trkpt>
      <trkpt lat="45.4188" lon="6.35961">
        <ele>1539.58</ele>
        <time>2013-08-10T08:55:20Z</time>
      </trkpt>
      <trkpt lat="45.41874" lon="6.35934">
        <ele>1539.78</ele>
        <time>2013-08-10T08:55:27Z</time>
      </trkpt>
      <trkpt lat="45.41865" lon="6.35908">
        <ele>1540.15</ele>
        <time>2013-08-10T08:55:35Z</time>
      </trkpt>
      <trkpt lat="45.41864" lon="6.35879">
        <ele>1540.76</ele>
        <time>2013-08-10T08:55:43Z</time>
      </trkpt>
      <trkpt lat="45.41863" lon="6.35851">
        <ele>1541.4</ele>
        <time>2013-08-10T08:55:51Z</time>
      </trkpt>
      <trkpt lat="45.41859" lon="6.35823">
        <ele>1542.07</ele>
        <time>2013-08-10T08:55:59Z</time>
      </trkpt>
      <trkpt lat="45.41855" lon="6.35795">
        <ele>1542.73</ele>
        <time>2013-08-10T08:56:07Z</time>
      </trkpt>
      <trkpt lat="45.41859" lon="6.35768">
        <ele>1543.53</ele>
        <time>2013-08-10T08:56:15Z</time>
      </trkpt>
      <trkpt lat="45.41868" lon="6.35744">
        <ele>1544.34</ele>
        <time>2013-08-10T08:56:22Z</time>
      </trkpt>
      <trkpt lat="45.41874" lon="6.35719">
        <ele>1545.2</ele>
        <time>2013-08-10T08:56:29Z</time>
      </trkpt>
      <trkpt lat="45.4188" lon="6.35694">
        <ele>1546.14</ele>
        <time>2013-08-10T08:56:38Z</time>
      </trkpt>
      <trkpt lat="45.41888" lon="6.35669">
        <ele>1547.16</ele>
        <time>2013-08-10T08:56:47Z</time>
      </trkpt>
      <trkpt lat="45.41896" lon="6.35643">
        <ele>1548.27</ele>
        <time>2013-08-10T08:56:56Z</time>
      </trkpt>
      <trkpt lat="45.41895" lon="6.35617">
        <ele>1549.4</ele>
        <time>2013-08-10T08:57:05Z</time>
      </trkpt>
      <trkpt lat="45.41889" lon="6.35591">
        <ele>1551.19</ele>
        <time>2013-08-10T08:57:20Z</time>
      </trkpt>
      <trkpt lat="45.41878" lon="6.3557">
        <ele>1552.71</ele>
        <time>2013-08-10T08:57:33Z</time>
      </trkpt>
      <trkpt lat="45.41879" lon="6.35544">
        <ele>1553.74</ele>
        <time>2013-08-10T08:57:43Z</time>
      </trkpt>
      <trkpt lat="45.41884" lon="6.35516">
        <ele>1554.75</ele>
        <time>2013-08-10T08:57:48Z</time>
      </trkpt>
      <trkpt lat="45.41895" lon="6.35487">
        <ele>1556.02</ele>
        <time>2013-08-10T08:57:52Z</time>
      </trkpt>
      <trkpt lat="45.41907" lon="6.35461">
        <ele>1556.63</ele>
        <time>2013-08-10T08:57:56Z</time>
      </trkpt>
      <trkpt lat="45.41909" lon="6.35434">
        <ele>1556.46</ele>
        <time>2013-08-10T08:58:00Z</time>
      </trkpt>
      <trkpt lat="45.41913" lon="6.35408">
        <ele>1555.82</ele>
        <time>2013-08-10T08:58:03Z</time>
      </trkpt>
      <trkpt lat="45.41916" lon="6.35382">
        <ele>1555.21</ele>
        <time>2013-08-10T08:58:06Z</time>
      </trkpt>
      <trkpt lat="45.419" lon="6.35368">
        <ele>1554.49</ele>
        <time>2013-08-10T08:58:11Z</time>
      </trkpt>
      <trkpt lat="45.41882" lon="6.35369">
        <ele>1554.54</ele>
        <time>2013-08-10T08:58:14Z</time>
      </trkpt>
      <trkpt lat="45.4186" lon="6.35368">
        <ele>1552.97</ele>
        <time>2013-08-10T08:58:17Z</time>
      </trkpt>
      <trkpt lat="45.41847" lon="6.35342">
        <ele>1548.98</ele>
        <time>2013-08-10T08:58:22Z</time>
      </trkpt>
      <trkpt lat="45.41837" lon="6.35312">
        <ele>1546.94</ele>
        <time>2013-08-10T08:58:25Z</time>
      </trkpt>
      <trkpt lat="45.41826" lon="6.3529">
        <ele>1545.4</ele>
        <time>2013-08-10T08:58:27Z</time>
      </trkpt>
      <trkpt lat="45.41817" lon="6.35267">
        <ele>1543.46</ele>
        <time>2013-08-10T08:58:29Z</time>
      </trkpt>
      <trkpt lat="45.41805" lon="6.35234">
        <ele>1540.5</ele>
        <time>2013-08-10T08:58:32Z</time>
      </trkpt>
      <trkpt lat="45.41796" lon="6.35203">
        <ele>1538.31</ele>
        <time>2013-08-10T08:58:35Z</time>
      </trkpt>
      <trkpt lat="45.41789" lon="6.35172">
        <ele>1536.82</ele>
        <time>2013-08-10T08:58:38Z</time>
      </trkpt>
      <trkpt lat="45.4178" lon="6.35144">
        <ele>1535.9</ele>
        <time>2013-08-10T08:58:41Z</time>
      </trkpt>
      <trkpt lat="45.41771" lon="6.35118">
        <ele>1535.51</ele>
        <time>2013-08-10T08:58:44Z</time>
      </trkpt>
      <trkpt lat="45.41764" lon="6.35091">
        <ele>1535.4</ele>
        <time>2013-08-10T08:58:47Z</time>
      </trkpt>
      <trkpt lat="45.41756" lon="6.35063">
        <ele>1535.16</ele>
        <time>2013-08-10T08:58:50Z</time>
      </trkpt>
      <trkpt lat="45.41747" lon="6.35036">
        <ele>1534.7</ele>
        <time>2013-08-10T08:58:53Z</time>
      </trkpt>
      <trkpt lat="45.41738" lon="6.35011">
        <ele>1534.29</ele>
        <time>2013-08-10T08:58:56Z</time>
      </trkpt>
      <trkpt lat="45.41733" lon="6.34986">
        <ele>1533.98</ele>
        <time>2013-08-10T08:58:59Z</time>
      </trkpt>
      <trkpt lat="45.41726" lon="6.34955">
        <ele>1533.48</ele>
        <time>2013-08-10T08:59:02Z</time>
      </trkpt>
      <trkpt lat="45.41717" lon="6.34922">
        <ele>1532.79</ele>
        <time>2013-08-10T08:59:05Z</time>
      </trkpt>
      <trkpt lat="45.41708" lon="6.34886">
        <ele>1531.97</ele>
        <time>2013-08-10T08:59:08Z</time>
      </trkpt>
      <trkpt lat="45.41702" lon="6.34851">
        <ele>1530.77</ele>
        <time>2013-08-10T08:59:11Z</time>
      </trkpt>
      <trkpt lat="45.41699" lon="6.34821">
        <ele>1529.51</ele>
        <time>2013-08-10T08:59:14Z</time>
      </trkpt>
      <trkpt lat="45.41705" lon="6.34788">
        <ele>1528.36</ele>
        <time>2013-08-10T08:59:17Z</time>
      </trkpt>
      <trkpt lat="45.41707" lon="6.34762">
        <ele>1527.6</ele>
        <time>2013-08-10T08:59:20Z</time>
      </trkpt>
      <trkpt lat="45.417" lon="6.34735">
        <ele>1526.19</ele>
        <time>2013-08-10T08:59:25Z</time>
      </trkpt>
      <trkpt lat="45.41691" lon="6.34711">
        <ele>1525.44</ele>
        <time>2013-08-10T08:59:29Z</time>
      </trkpt>
      <trkpt lat="45.41682" lon="6.34687">
        <ele>1525.35</ele>
        <time>2013-08-10T08:59:32Z</time>
      </trkpt>
      <trkpt lat="45.4167" lon="6.3466">
        <ele>1525.79</ele>
        <time>2013-08-10T08:59:36Z</time>
      </trkpt>
      <trkpt lat="45.41658" lon="6.34634">
        <ele>1526.41</ele>
        <time>2013-08-10T08:59:40Z</time>
      </trkpt>
      <trkpt lat="45.41644" lon="6.34608">
        <ele>1526.47</ele>
        <time>2013-08-10T08:59:45Z</time>
      </trkpt>
      <trkpt lat="45.41631" lon="6.34587">
        <ele>1525.9</ele>
        <time>2013-08-10T08:59:48Z</time>
      </trkpt>
      <trkpt lat="45.41616" lon="6.3456">
        <ele>1524.11</ele>
        <time>2013-08-10T08:59:51Z</time>
      </trkpt>
      <trkpt lat="45.41602" lon="6.3454">
        <ele>1522.34</ele>
        <time>2013-08-10T08:59:53Z</time>
      </trkpt>
      <trkpt lat="45.4159" lon="6.3452">
        <ele>1520.61</ele>
        <time>2013-08-10T08:59:55Z</time>
      </trkpt>
      <trkpt lat="45.4158" lon="6.34486">
        <ele>1518.74</ele>
        <time>2013-08-10T08:59:58Z</time>
      </trkpt>
      <trkpt lat="45.41583" lon="6.3445">
        <ele>1517.35</ele>
        <time>2013-08-10T09:00:01Z</time>
      </trkpt>
      <trkpt lat="45.41601" lon="6.34421">
        <ele>1516.13</ele>
        <time>2013-08-10T09:00:04Z</time>
      </trkpt>
      <trkpt lat="45.41616" lon="6.34403">
        <ele>1515.49</ele>
        <time>2013-08-10T09:00:06Z</time>
      </trkpt>
      <trkpt lat="45.41627" lon="6.3438">
        <ele>1514.78</ele>
        <time>2013-08-10T09:00:08Z</time>
      </trkpt>
      <trkpt lat="45.41624" lon="6.34353">
        <ele>1514.05</ele>
        <time>2013-08-10T09:00:10Z</time>
      </trkpt>
      <trkpt lat="45.41611" lon="6.34333">
        <ele>1513.33</ele>
        <time>2013-08-10T09:00:12Z</time>
      </trkpt>
      <trkpt lat="45.41596" lon="6.34317">
        <ele>1512.56</ele>
        <time>2013-08-10T09:00:14Z</time>
      </trkpt>
      <trkpt lat="45.4158" lon="6.34302">
        <ele>1511.45</ele>
        <time>2013-08-10T09:00:16Z</time>
      </trkpt>
      <trkpt lat="45.41564" lon="6.3429">
        <ele>1509.93</ele>
        <time>2013-08-10T09:00:18Z</time>
      </trkpt>
      <trkpt lat="45.41555" lon="6.34259">
        <ele>1507.56</ele>
        <time>2013-08-10T09:00:21Z</time>
      </trkpt>
      <trkpt lat="45.41543" lon="6.3423">
        <ele>1505.34</ele>
        <time>2013-08-10T09:00:24Z</time>
      </trkpt>
      <trkpt lat="45.4152" lon="6.34207">
        <ele>1503.93</ele>
        <time>2013-08-10T09:00:27Z</time>
      </trkpt>
      <trkpt lat="45.41502" lon="6.34192">
        <ele>1503.34</ele>
        <time>2013-08-10T09:00:29Z</time>
      </trkpt>
      <trkpt lat="45.41489" lon="6.34173">
        <ele>1502.97</ele>
        <time>2013-08-10T09:00:31Z</time>
      </trkpt>
      <trkpt lat="45.41479" lon="6.34151">
        <ele>1502.6</ele>
        <time>2013-08-10T09:00:33Z</time>
      </trkpt>
      <trkpt lat="45.41467" lon="6.34131">
        <ele>1502.02</ele>
        <time>2013-08-10T09:00:35Z</time>
      </trkpt>
      <trkpt lat="45.41448" lon="6.34105">
        <ele>1501</ele>
        <time>2013-08-10T09:00:38Z</time>
      </trkpt>
      <trkpt lat="45.41433" lon="6.34085">
        <ele>1500.14</ele>
        <time>2013-08-10T09:00:40Z</time>
      </trkpt>
      <trkpt lat="45.41419" lon="6.34064">
        <ele>1499.04</ele>
        <time>2013-08-10T09:00:42Z</time>
      </trkpt>
      <trkpt lat="45.41408" lon="6.34042">
        <ele>1497.65</ele>
        <time>2013-08-10T09:00:44Z</time>
      </trkpt>
      <trkpt lat="45.41396" lon="6.34016">
        <ele>1496.25</ele>
        <time>2013-08-10T09:00:46Z</time>
      </trkpt>
      <trkpt lat="45.41383" lon="6.33987">
        <ele>1494.72</ele>
        <time>2013-08-10T09:00:48Z</time>
      </trkpt>
      <trkpt lat="45.41367" lon="6.33958">
        <ele>1493.25</ele>
        <time>2013-08-10T09:00:50Z</time>
      </trkpt>
      <trkpt lat="45.41349" lon="6.3393">
        <ele>1491.96</ele>
        <time>2013-08-10T09:00:52Z</time>
      </trkpt>
      <trkpt lat="45.41329" lon="6.33902">
        <ele>1490.25</ele>
        <time>2013-08-10T09:00:54Z</time>
      </trkpt>
      <trkpt lat="45.41309" lon="6.33875">
        <ele>1487.99</ele>
        <time>2013-08-10T09:00:56Z</time>
      </trkpt>
      <trkpt lat="45.41289" lon="6.3385">
        <ele>1485.26</ele>
        <time>2013-08-10T09:00:58Z</time>
      </trkpt>
      <trkpt lat="45.41272" lon="6.33824">
        <ele>1482.17</ele>
        <time>2013-08-10T09:01:00Z</time>
      </trkpt>
      <trkpt lat="45.41255" lon="6.33791">
        <ele>1478.91</ele>
        <time>2013-08-10T09:01:02Z</time>
      </trkpt>
      <trkpt lat="45.41242" lon="6.3376">
        <ele>1475.98</ele>
        <time>2013-08-10T09:01:04Z</time>
      </trkpt>
      <trkpt lat="45.41238" lon="6.33732">
        <ele>1473.58</ele>
        <time>2013-08-10T09:01:06Z</time>
      </trkpt>
      <trkpt lat="45.41236" lon="6.33703">
        <ele>1471.53</ele>
        <time>2013-08-10T09:01:09Z</time>
      </trkpt>
      <trkpt lat="45.41235" lon="6.33675">
        <ele>1471.54</ele>
        <time>2013-08-10T09:01:14Z</time>
      </trkpt>
      <trkpt lat="45.41231" lon="6.33648">
        <ele>1471.93</ele>
        <time>2013-08-10T09:01:22Z</time>
      </trkpt>
      <trkpt lat="45.4123" lon="6.33621">
        <ele>1472.71</ele>
        <time>2013-08-10T09:01:33Z</time>
      </trkpt>
      <trkpt lat="45.41238" lon="6.33597">
        <ele>1473.88</ele>
        <time>2013-08-10T09:01:45Z</time>
      </trkpt>
      <trkpt lat="45.41243" lon="6.33572">
        <ele>1475.97</ele>
        <time>2013-08-10T09:01:57Z</time>
      </trkpt>
      <trkpt lat="45.41236" lon="6.33547">
        <ele>1477.91</ele>
        <time>2013-08-10T09:02:12Z</time>
      </trkpt>
      <trkpt lat="45.41218" lon="6.33543">
        <ele>1482.86</ele>
        <time>2013-08-10T09:03:49Z</time>
      </trkpt>
      <trkpt lat="45.40846" lon="6.3297">
        <ele>1467.42</ele>
        <time>2013-08-10T09:06:51Z</time>
      </trkpt>
      <trkpt lat="45.40828" lon="6.32951">
        <ele>1477.47</ele>
        <time>2013-08-10T09:06:53Z</time>
      </trkpt>
      <trkpt lat="45.40819" lon="6.32926">
        <ele>1500.13</ele>
        <time>2013-08-10T09:06:59Z</time>
      </trkpt>
      <trkpt lat="45.4082" lon="6.32899">
        <ele>1501.36</ele>
        <time>2013-08-10T09:07:06Z</time>
      </trkpt>
      <trkpt lat="45.40829" lon="6.32875">
        <ele>1500.64</ele>
        <time>2013-08-10T09:07:14Z</time>
      </trkpt>
      <trkpt lat="45.40835" lon="6.32847">
        <ele>1502.76</ele>
        <time>2013-08-10T09:07:22Z</time>
      </trkpt>
      <trkpt lat="45.40839" lon="6.3282">
        <ele>1503.49</ele>
        <time>2013-08-10T09:07:29Z</time>
      </trkpt>
      <trkpt lat="45.40831" lon="6.32796">
        <ele>1503.56</ele>
        <time>2013-08-10T09:07:37Z</time>
      </trkpt>
      <trkpt lat="45.40818" lon="6.32777">
        <ele>1506.49</ele>
        <time>2013-08-10T09:07:51Z</time>
      </trkpt>
      <trkpt lat="45.40805" lon="6.3276">
        <ele>1507.52</ele>
        <time>2013-08-10T09:08:09Z</time>
      </trkpt>
      <trkpt lat="45.40792" lon="6.3274">
        <ele>1508.04</ele>
        <time>2013-08-10T09:08:27Z</time>
      </trkpt>
      <trkpt lat="45.40783" lon="6.32714">
        <ele>1508.64</ele>
        <time>2013-08-10T09:08:36Z</time>
      </trkpt>
      <trkpt lat="45.40781" lon="6.32689">
        <ele>1508.99</ele>
        <time>2013-08-10T09:08:44Z</time>
      </trkpt>
      <trkpt lat="45.40771" lon="6.32665">
        <ele>1509.92</ele>
        <time>2013-08-10T09:08:54Z</time>
      </trkpt>
      <trkpt lat="45.40753" lon="6.32659">
        <ele>1512.72</ele>
        <time>2013-08-10T09:09:07Z</time>
      </trkpt>
      <trkpt lat="45.40735" lon="6.32654">
        <ele>1519.87</ele>
        <time>2013-08-10T09:09:27Z</time>
      </trkpt>
      <trkpt lat="45.40718" lon="6.32639">
        <ele>1522.36</ele>
        <time>2013-08-10T09:09:40Z</time>
      </trkpt>
      <trkpt lat="45.40703" lon="6.32623">
        <ele>1524.02</ele>
        <time>2013-08-10T09:09:50Z</time>
      </trkpt>
      <trkpt lat="45.40689" lon="6.32604">
        <ele>1525.82</ele>
        <time>2013-08-10T09:10:02Z</time>
      </trkpt>
      <trkpt lat="45.40679" lon="6.32582">
        <ele>1527.37</ele>
        <time>2013-08-10T09:10:14Z</time>
      </trkpt>
      <trkpt lat="45.40666" lon="6.32563">
        <ele>1528.05</ele>
        <time>2013-08-10T09:10:26Z</time>
      </trkpt>
      <trkpt lat="45.40668" lon="6.32537">
        <ele>1528.62</ele>
        <time>2013-08-10T09:10:45Z</time>
      </trkpt>
      <trkpt lat="45.40678" lon="6.32515">
        <ele>1529.19</ele>
        <time>2013-08-10T09:10:59Z</time>
      </trkpt>
      <trkpt lat="45.40682" lon="6.32489">
        <ele>1530.08</ele>
        <time>2013-08-10T09:11:18Z</time>
      </trkpt>
      <trkpt lat="45.40686" lon="6.32463">
        <ele>1531.34</ele>
        <time>2013-08-10T09:11:33Z</time>
      </trkpt>
      <trkpt lat="45.40683" lon="6.32436">
        <ele>1533</ele>
        <time>2013-08-10T09:11:48Z</time>
      </trkpt>
      <trkpt lat="45.40694" lon="6.32415">
        <ele>1534.81</ele>
        <time>2013-08-10T09:12:04Z</time>
      </trkpt>
      <trkpt lat="45.40704" lon="6.32393">
        <ele>1536.23</ele>
        <time>2013-08-10T09:12:19Z</time>
      </trkpt>
      <trkpt lat="45.40717" lon="6.32373">
        <ele>1537.13</ele>
        <time>2013-08-10T09:12:32Z</time>
      </trkpt>
      <trkpt lat="45.40726" lon="6.32349">
        <ele>1537.89</ele>
        <time>2013-08-10T09:12:42Z</time>
      </trkpt>
      <trkpt lat="45.40724" lon="6.32322">
        <ele>1538.52</ele>
        <time>2013-08-10T09:12:52Z</time>
      </trkpt>
      <trkpt lat="45.40714" lon="6.323">
        <ele>1540.67</ele>
        <time>2013-08-10T09:13:07Z</time>
      </trkpt>
      <trkpt lat="45.40702" lon="6.32281">
        <ele>1541.46</ele>
        <time>2013-08-10T09:13:19Z</time>
      </trkpt>
      <trkpt lat="45.40687" lon="6.32265">
        <ele>1543.75</ele>
        <time>2013-08-10T09:13:31Z</time>
      </trkpt>
      <trkpt lat="45.40676" lon="6.32242">
        <ele>1545.54</ele>
        <time>2013-08-10T09:13:41Z</time>
      </trkpt>
      <trkpt lat="45.40665" lon="6.32221">
        <ele>1546.91</ele>
        <time>2013-08-10T09:13:52Z</time>
      </trkpt>
      <trkpt lat="45.4066" lon="6.32196">
        <ele>1548.97</ele>
        <time>2013-08-10T09:14:04Z</time>
      </trkpt>
      <trkpt lat="45.40647" lon="6.32177">
        <ele>1552.76</ele>
        <time>2013-08-10T09:14:25Z</time>
      </trkpt>
      <trkpt lat="45.40627" lon="6.32173">
        <ele>1554.72</ele>
        <time>2013-08-10T09:14:34Z</time>
      </trkpt>
      <trkpt lat="45.40608" lon="6.32166">
        <ele>1555.9</ele>
        <time>2013-08-10T09:14:47Z</time>
      </trkpt>
      <trkpt lat="45.40589" lon="6.32161">
        <ele>1556.52</ele>
        <time>2013-08-10T09:14:54Z</time>
      </trkpt>
      <trkpt lat="45.40572" lon="6.32143">
        <ele>1556.92</ele>
        <time>2013-08-10T09:15:01Z</time>
      </trkpt>
      <trkpt lat="45.40554" lon="6.32132">
        <ele>1557.37</ele>
        <time>2013-08-10T09:15:09Z</time>
      </trkpt>
      <trkpt lat="45.40541" lon="6.32108">
        <ele>1557.61</ele>
        <time>2013-08-10T09:15:20Z</time>
      </trkpt>
      <trkpt lat="45.4053" lon="6.32087">
        <ele>1557.44</ele>
        <time>2013-08-10T09:15:25Z</time>
      </trkpt>
      <trkpt lat="45.40515" lon="6.32069">
        <ele>1557.2</ele>
        <time>2013-08-10T09:15:33Z</time>
      </trkpt>
      <trkpt lat="45.40498" lon="6.32059">
        <ele>1557.49</ele>
        <time>2013-08-10T09:15:40Z</time>
      </trkpt>
      <trkpt lat="45.40478" lon="6.32059">
        <ele>1558.18</ele>
        <time>2013-08-10T09:15:50Z</time>
      </trkpt>
      <trkpt lat="45.4046" lon="6.32055">
        <ele>1558.85</ele>
        <time>2013-08-10T09:15:58Z</time>
      </trkpt>
      <trkpt lat="45.40443" lon="6.32041">
        <ele>1559.34</ele>
        <time>2013-08-10T09:16:07Z</time>
      </trkpt>
      <trkpt lat="45.40422" lon="6.32038">
        <ele>1559.39</ele>
        <time>2013-08-10T09:16:15Z</time>
      </trkpt>
      <trkpt lat="45.404" lon="6.32035">
        <ele>1559.51</ele>
        <time>2013-08-10T09:16:20Z</time>
      </trkpt>
      <trkpt lat="45.40383" lon="6.32023">
        <ele>1559.74</ele>
        <time>2013-08-10T09:16:27Z</time>
      </trkpt>
      <trkpt lat="45.40366" lon="6.32012">
        <ele>1559.85</ele>
        <time>2013-08-10T09:16:34Z</time>
      </trkpt>
      <trkpt lat="45.40355" lon="6.31991">
        <ele>1559.69</ele>
        <time>2013-08-10T09:16:38Z</time>
      </trkpt>
      <trkpt lat="45.40346" lon="6.31961">
        <ele>1558.3</ele>
        <time>2013-08-10T09:16:41Z</time>
      </trkpt>
      <trkpt lat="45.40339" lon="6.31931">
        <ele>1555.73</ele>
        <time>2013-08-10T09:16:44Z</time>
      </trkpt>
      <trkpt lat="45.40331" lon="6.31905">
        <ele>1553.23</ele>
        <time>2013-08-10T09:16:47Z</time>
      </trkpt>
      <trkpt lat="45.40322" lon="6.31877">
        <ele>1551.83</ele>
        <time>2013-08-10T09:16:50Z</time>
      </trkpt>
      <trkpt lat="45.40308" lon="6.31853">
        <ele>1550.73</ele>
        <time>2013-08-10T09:16:53Z</time>
      </trkpt>
      <trkpt lat="45.40294" lon="6.31829">
        <ele>1549.27</ele>
        <time>2013-08-10T09:16:56Z</time>
      </trkpt>
      <trkpt lat="45.40279" lon="6.31805">
        <ele>1547.48</ele>
        <time>2013-08-10T09:16:59Z</time>
      </trkpt>
      <trkpt lat="45.40267" lon="6.31777">
        <ele>1544.5</ele>
        <time>2013-08-10T09:17:07Z</time>
      </trkpt>
      <trkpt lat="45.40263" lon="6.31747">
        <ele>1544.23</ele>
        <time>2013-08-10T09:17:17Z</time>
      </trkpt>
      <trkpt lat="45.40259" lon="6.3172">
        <ele>1544.24</ele>
        <time>2013-08-10T09:17:28Z</time>
      </trkpt>
      <trkpt lat="45.40253" lon="6.31694">
        <ele>1544.69</ele>
        <time>2013-08-10T09:17:42Z</time>
      </trkpt>
      <trkpt lat="45.40247" lon="6.31662">
        <ele>1548.62</ele>
        <time>2013-08-10T09:18:03Z</time>
      </trkpt>
      <trkpt lat="45.40238" lon="6.31639">
        <ele>1551.86</ele>
        <time>2013-08-10T09:19:34Z</time>
      </trkpt>
      <trkpt lat="45.40247" lon="6.31667">
        <ele>1558.01</ele>
        <time>2013-08-10T09:28:01Z</time>
      </trkpt>
      <trkpt lat="45.40254" lon="6.31699">
        <ele>1556.21</ele>
        <time>2013-08-10T09:28:05Z</time>
      </trkpt>
      <trkpt lat="45.40257" lon="6.31729">
        <ele>1552.36</ele>
        <time>2013-08-10T09:28:09Z</time>
      </trkpt>
      <trkpt lat="45.40263" lon="6.31754">
        <ele>1548.82</ele>
        <time>2013-08-10T09:28:12Z</time>
      </trkpt>
      <trkpt lat="45.40269" lon="6.31784">
        <ele>1545.96</ele>
        <time>2013-08-10T09:28:16Z</time>
      </trkpt>
      <trkpt lat="45.40251" lon="6.31769">
        <ele>1543.19</ele>
        <time>2013-08-10T09:28:26Z</time>
      </trkpt>
      <trkpt lat="45.40235" lon="6.31745">
        <ele>1541.02</ele>
        <time>2013-08-10T09:28:29Z</time>
      </trkpt>
      <trkpt lat="45.40221" lon="6.31717">
        <ele>1538.13</ele>
        <time>2013-08-10T09:28:32Z</time>
      </trkpt>
      <trkpt lat="45.40206" lon="6.31685">
        <ele>1534.53</ele>
        <time>2013-08-10T09:28:35Z</time>
      </trkpt>
      <trkpt lat="45.40195" lon="6.31664">
        <ele>1532.61</ele>
        <time>2013-08-10T09:28:37Z</time>
      </trkpt>
      <trkpt lat="45.40181" lon="6.31641">
        <ele>1530.05</ele>
        <time>2013-08-10T09:28:40Z</time>
      </trkpt>
      <trkpt lat="45.40165" lon="6.31616">
        <ele>1528.05</ele>
        <time>2013-08-10T09:28:44Z</time>
      </trkpt>
      <trkpt lat="45.40152" lon="6.31592">
        <ele>1527.47</ele>
        <time>2013-08-10T09:28:48Z</time>
      </trkpt>
      <trkpt lat="45.40138" lon="6.31574">
        <ele>1527.65</ele>
        <time>2013-08-10T09:28:51Z</time>
      </trkpt>
      <trkpt lat="45.40124" lon="6.31555">
        <ele>1528.06</ele>
        <time>2013-08-10T09:28:55Z</time>
      </trkpt>
      <trkpt lat="45.4011" lon="6.31534">
        <ele>1528.17</ele>
        <time>2013-08-10T09:29:02Z</time>
      </trkpt>
      <trkpt lat="45.40094" lon="6.31522">
        <ele>1528.31</ele>
        <time>2013-08-10T09:29:09Z</time>
      </trkpt>
      <trkpt lat="45.40076" lon="6.3153">
        <ele>1528.44</ele>
        <time>2013-08-10T09:29:15Z</time>
      </trkpt>
      <trkpt lat="45.40056" lon="6.3154">
        <ele>1528.08</ele>
        <time>2013-08-10T09:29:20Z</time>
      </trkpt>
      <trkpt lat="45.40033" lon="6.31537">
        <ele>1527.89</ele>
        <time>2013-08-10T09:29:24Z</time>
      </trkpt>
      <trkpt lat="45.40012" lon="6.31528">
        <ele>1526.86</ele>
        <time>2013-08-10T09:29:27Z</time>
      </trkpt>
      <trkpt lat="45.39993" lon="6.31519">
        <ele>1525.34</ele>
        <time>2013-08-10T09:29:30Z</time>
      </trkpt>
      <trkpt lat="45.39967" lon="6.31512">
        <ele>1523.91</ele>
        <time>2013-08-10T09:29:33Z</time>
      </trkpt>
      <trkpt lat="45.39944" lon="6.31508">
        <ele>1522.7</ele>
        <time>2013-08-10T09:29:36Z</time>
      </trkpt>
      <trkpt lat="45.39923" lon="6.31504">
        <ele>1521.08</ele>
        <time>2013-08-10T09:29:39Z</time>
      </trkpt>
      <trkpt lat="45.39904" lon="6.31497">
        <ele>1518.1</ele>
        <time>2013-08-10T09:29:42Z</time>
      </trkpt>
      <trkpt lat="45.3989" lon="6.31475">
        <ele>1512.67</ele>
        <time>2013-08-10T09:29:46Z</time>
      </trkpt>
      <trkpt lat="45.39877" lon="6.31451">
        <ele>1507.39</ele>
        <time>2013-08-10T09:29:50Z</time>
      </trkpt>
      <trkpt lat="45.39861" lon="6.31432">
        <ele>1498.54</ele>
        <time>2013-08-10T09:29:56Z</time>
      </trkpt>
      <trkpt lat="45.39843" lon="6.31417">
        <ele>1491.9</ele>
        <time>2013-08-10T09:30:11Z</time>
      </trkpt>
      <trkpt lat="45.39826" lon="6.31401">
        <ele>1490.01</ele>
        <time>2013-08-10T09:30:18Z</time>
      </trkpt>
      <trkpt lat="45.39824" lon="6.31374">
        <ele>1488.47</ele>
        <time>2013-08-10T09:30:23Z</time>
      </trkpt>
      <trkpt lat="45.39817" lon="6.3135">
        <ele>1481.82</ele>
        <time>2013-08-10T09:30:29Z</time>
      </trkpt>
      <trkpt lat="45.39802" lon="6.31333">
        <ele>1475.88</ele>
        <time>2013-08-10T09:30:33Z</time>
      </trkpt>
      <trkpt lat="45.39787" lon="6.3132">
        <ele>1472.4</ele>
        <time>2013-08-10T09:30:39Z</time>
      </trkpt>
      <trkpt lat="45.39767" lon="6.31319">
        <ele>1468.92</ele>
        <time>2013-08-10T09:30:49Z</time>
      </trkpt>
      <trkpt lat="45.39749" lon="6.31305">
        <ele>1465.97</ele>
        <time>2013-08-10T09:30:57Z</time>
      </trkpt>
      <trkpt lat="45.39734" lon="6.3129">
        <ele>1464.06</ele>
        <time>2013-08-10T09:31:02Z</time>
      </trkpt>
      <trkpt lat="45.39718" lon="6.31272">
        <ele>1461.75</ele>
        <time>2013-08-10T09:31:08Z</time>
      </trkpt>
      <trkpt lat="45.39705" lon="6.31253">
        <ele>1458.37</ele>
        <time>2013-08-10T09:31:17Z</time>
      </trkpt>
      <trkpt lat="45.39688" lon="6.31239">
        <ele>1452.04</ele>
        <time>2013-08-10T09:31:30Z</time>
      </trkpt>
      <trkpt lat="45.39667" lon="6.31246">
        <ele>1439.7</ele>
        <time>2013-08-10T09:32:02Z</time>
      </trkpt>
      <trkpt lat="45.3965" lon="6.3126">
        <ele>1436.85</ele>
        <time>2013-08-10T09:32:10Z</time>
      </trkpt>
      <trkpt lat="45.39633" lon="6.31275">
        <ele>1433.57</ele>
        <time>2013-08-10T09:32:17Z</time>
      </trkpt>
      <trkpt lat="45.39615" lon="6.31287">
        <ele>1430.16</ele>
        <time>2013-08-10T09:32:24Z</time>
      </trkpt>
      <trkpt lat="45.39596" lon="6.31284">
        <ele>1426.76</ele>
        <time>2013-08-10T09:32:31Z</time>
      </trkpt>
      <trkpt lat="45.39579" lon="6.31271">
        <ele>1422.53</ele>
        <time>2013-08-10T09:32:40Z</time>
      </trkpt>
      <trkpt lat="45.39561" lon="6.31258">
        <ele>1418.86</ele>
        <time>2013-08-10T09:32:48Z</time>
      </trkpt>
      <trkpt lat="45.39542" lon="6.31254">
        <ele>1411.91</ele>
        <time>2013-08-10T09:32:52Z</time>
      </trkpt>
      <trkpt lat="45.39524" lon="6.31269">
        <ele>1405.06</ele>
        <time>2013-08-10T09:32:57Z</time>
      </trkpt>
      <trkpt lat="45.39506" lon="6.31281">
        <ele>1398.74</ele>
        <time>2013-08-10T09:33:02Z</time>
      </trkpt>
      <trkpt lat="45.39487" lon="6.31287">
        <ele>1390</ele>
        <time>2013-08-10T09:33:07Z</time>
      </trkpt>
      <trkpt lat="45.39466" lon="6.31281">
        <ele>1383.28</ele>
        <time>2013-08-10T09:33:14Z</time>
      </trkpt>
      <trkpt lat="45.39446" lon="6.31276">
        <ele>1376.7</ele>
        <time>2013-08-10T09:33:19Z</time>
      </trkpt>
      <trkpt lat="45.39427" lon="6.31276">
        <ele>1370.79</ele>
        <time>2013-08-10T09:33:24Z</time>
      </trkpt>
      <trkpt lat="45.39409" lon="6.3128">
        <ele>1366.05</ele>
        <time>2013-08-10T09:33:30Z</time>
      </trkpt>
      <trkpt lat="45.39393" lon="6.31268">
        <ele>1362.64</ele>
        <time>2013-08-10T09:33:53Z</time>
      </trkpt>
      <trkpt lat="45.39372" lon="6.31272">
        <ele>1359.06</ele>
        <time>2013-08-10T09:34:06Z</time>
      </trkpt>
      <trkpt lat="45.39366" lon="6.31299">
        <ele>1353.14</ele>
        <time>2013-08-10T09:34:11Z</time>
      </trkpt>
      <trkpt lat="45.39349" lon="6.31281">
        <ele>1348.35</ele>
        <time>2013-08-10T09:34:16Z</time>
      </trkpt>
      <trkpt lat="45.39338" lon="6.31259">
        <ele>1344.68</ele>
        <time>2013-08-10T09:34:21Z</time>
      </trkpt>
      <trkpt lat="45.39336" lon="6.31289">
        <ele>1340.26</ele>
        <time>2013-08-10T09:34:31Z</time>
      </trkpt>
      <trkpt lat="45.39321" lon="6.31272">
        <ele>1330.62</ele>
        <time>2013-08-10T09:34:42Z</time>
      </trkpt>
      <trkpt lat="45.39307" lon="6.31248">
        <ele>1328.63</ele>
        <time>2013-08-10T09:34:45Z</time>
      </trkpt>
      <trkpt lat="45.39296" lon="6.31218">
        <ele>1326.79</ele>
        <time>2013-08-10T09:34:48Z</time>
      </trkpt>
      <trkpt lat="45.39291" lon="6.31192">
        <ele>1325.45</ele>
        <time>2013-08-10T09:34:50Z</time>
      </trkpt>
      <trkpt lat="45.39285" lon="6.31156">
        <ele>1323.1</ele>
        <time>2013-08-10T09:34:53Z</time>
      </trkpt>
      <trkpt lat="45.39277" lon="6.31132">
        <ele>1321.62</ele>
        <time>2013-08-10T09:34:55Z</time>
      </trkpt>
      <trkpt lat="45.39267" lon="6.3111">
        <ele>1320.15</ele>
        <time>2013-08-10T09:34:57Z</time>
      </trkpt>
      <trkpt lat="45.39255" lon="6.31089">
        <ele>1318.69</ele>
        <time>2013-08-10T09:34:59Z</time>
      </trkpt>
      <trkpt lat="45.39237" lon="6.31073">
        <ele>1317.21</ele>
        <time>2013-08-10T09:35:01Z</time>
      </trkpt>
      <trkpt lat="45.39215" lon="6.31064">
        <ele>1315.8</ele>
        <time>2013-08-10T09:35:03Z</time>
      </trkpt>
      <trkpt lat="45.39192" lon="6.31057">
        <ele>1314.41</ele>
        <time>2013-08-10T09:35:05Z</time>
      </trkpt>
      <trkpt lat="45.3917" lon="6.31052">
        <ele>1313.01</ele>
        <time>2013-08-10T09:35:07Z</time>
      </trkpt>
      <trkpt lat="45.39148" lon="6.31045">
        <ele>1311.49</ele>
        <time>2013-08-10T09:35:09Z</time>
      </trkpt>
      <trkpt lat="45.39124" lon="6.3104">
        <ele>1309.93</ele>
        <time>2013-08-10T09:35:11Z</time>
      </trkpt>
      <trkpt lat="45.39099" lon="6.31037">
        <ele>1308.52</ele>
        <time>2013-08-10T09:35:13Z</time>
      </trkpt>
      <trkpt lat="45.39074" lon="6.31039">
        <ele>1307.25</ele>
        <time>2013-08-10T09:35:15Z</time>
      </trkpt>
      <trkpt lat="45.39049" lon="6.3104">
        <ele>1305.96</ele>
        <time>2013-08-10T09:35:17Z</time>
      </trkpt>
      <trkpt lat="45.39025" lon="6.31038">
        <ele>1304.43</ele>
        <time>2013-08-10T09:35:19Z</time>
      </trkpt>
      <trkpt lat="45.39001" lon="6.3103">
        <ele>1302.47</ele>
        <time>2013-08-10T09:35:21Z</time>
      </trkpt>
      <trkpt lat="45.38978" lon="6.31016">
        <ele>1300.2</ele>
        <time>2013-08-10T09:35:23Z</time>
      </trkpt>
      <trkpt lat="45.38955" lon="6.30997">
        <ele>1297.53</ele>
        <time>2013-08-10T09:35:25Z</time>
      </trkpt>
      <trkpt lat="45.38933" lon="6.30975">
        <ele>1294.92</ele>
        <time>2013-08-10T09:35:27Z</time>
      </trkpt>
      <trkpt lat="45.38912" lon="6.30956">
        <ele>1292.59</ele>
        <time>2013-08-10T09:35:29Z</time>
      </trkpt>
      <trkpt lat="45.38887" lon="6.30946">
        <ele>1290.69</ele>
        <time>2013-08-10T09:35:31Z</time>
      </trkpt>
      <trkpt lat="45.38859" lon="6.30939">
        <ele>1288.79</ele>
        <time>2013-08-10T09:35:33Z</time>
      </trkpt>
      <trkpt lat="45.38836" lon="6.30935">
        <ele>1286.57</ele>
        <time>2013-08-10T09:35:35Z</time>
      </trkpt>
      <trkpt lat="45.38815" lon="6.30932">
        <ele>1284.2</ele>
        <time>2013-08-10T09:35:37Z</time>
      </trkpt>
      <trkpt lat="45.38797" lon="6.3093">
        <ele>1281.89</ele>
        <time>2013-08-10T09:35:39Z</time>
      </trkpt>
      <trkpt lat="45.38776" lon="6.30913">
        <ele>1279.21</ele>
        <time>2013-08-10T09:35:42Z</time>
      </trkpt>
      <trkpt lat="45.38758" lon="6.30894">
        <ele>1277.87</ele>
        <time>2013-08-10T09:35:45Z</time>
      </trkpt>
      <trkpt lat="45.3874" lon="6.30874">
        <ele>1277.42</ele>
        <time>2013-08-10T09:35:48Z</time>
      </trkpt>
      <trkpt lat="45.38722" lon="6.30855">
        <ele>1277.02</ele>
        <time>2013-08-10T09:35:51Z</time>
      </trkpt>
      <trkpt lat="45.38702" lon="6.3084">
        <ele>1276.51</ele>
        <time>2013-08-10T09:35:54Z</time>
      </trkpt>
      <trkpt lat="45.38679" lon="6.30828">
        <ele>1275.96</ele>
        <time>2013-08-10T09:35:57Z</time>
      </trkpt>
      <trkpt lat="45.38653" lon="6.3082">
        <ele>1274.71</ele>
        <time>2013-08-10T09:36:00Z</time>
      </trkpt>
      <trkpt lat="45.38633" lon="6.30817">
        <ele>1273.68</ele>
        <time>2013-08-10T09:36:02Z</time>
      </trkpt>
      <trkpt lat="45.38613" lon="6.30813">
        <ele>1272.8</ele>
        <time>2013-08-10T09:36:04Z</time>
      </trkpt>
      <trkpt lat="45.38594" lon="6.30811">
        <ele>1272.01</ele>
        <time>2013-08-10T09:36:06Z</time>
      </trkpt>
      <trkpt lat="45.38576" lon="6.30809">
        <ele>1271.14</ele>
        <time>2013-08-10T09:36:08Z</time>
      </trkpt>
      <trkpt lat="45.38557" lon="6.30808">
        <ele>1270.41</ele>
        <time>2013-08-10T09:36:10Z</time>
      </trkpt>
      <trkpt lat="45.38539" lon="6.30806">
        <ele>1269.77</ele>
        <time>2013-08-10T09:36:12Z</time>
      </trkpt>
      <trkpt lat="45.38521" lon="6.30804">
        <ele>1269.34</ele>
        <time>2013-08-10T09:36:14Z</time>
      </trkpt>
      <trkpt lat="45.38494" lon="6.308">
        <ele>1268.82</ele>
        <time>2013-08-10T09:36:17Z</time>
      </trkpt>
      <trkpt lat="45.38467" lon="6.30798">
        <ele>1268.14</ele>
        <time>2013-08-10T09:36:20Z</time>
      </trkpt>
      <trkpt lat="45.38441" lon="6.30793">
        <ele>1267.4</ele>
        <time>2013-08-10T09:36:23Z</time>
      </trkpt>
      <trkpt lat="45.38423" lon="6.30788">
        <ele>1267.13</ele>
        <time>2013-08-10T09:36:25Z</time>
      </trkpt>
      <trkpt lat="45.38398" lon="6.3078">
        <ele>1266.35</ele>
        <time>2013-08-10T09:36:28Z</time>
      </trkpt>
      <trkpt lat="45.38371" lon="6.3077">
        <ele>1265.01</ele>
        <time>2013-08-10T09:36:31Z</time>
      </trkpt>
      <trkpt lat="45.38353" lon="6.30763">
        <ele>1264.65</ele>
        <time>2013-08-10T09:36:33Z</time>
      </trkpt>
      <trkpt lat="45.38328" lon="6.30752">
        <ele>1264.35</ele>
        <time>2013-08-10T09:36:36Z</time>
      </trkpt>
      <trkpt lat="45.38302" lon="6.30739">
        <ele>1263.46</ele>
        <time>2013-08-10T09:36:39Z</time>
      </trkpt>
      <trkpt lat="45.38284" lon="6.30728">
        <ele>1262.96</ele>
        <time>2013-08-10T09:36:41Z</time>
      </trkpt>
      <trkpt lat="45.38267" lon="6.30716">
        <ele>1262.52</ele>
        <time>2013-08-10T09:36:43Z</time>
      </trkpt>
      <trkpt lat="45.3825" lon="6.30701">
        <ele>1262.3</ele>
        <time>2013-08-10T09:36:45Z</time>
      </trkpt>
      <trkpt lat="45.38235" lon="6.30682">
        <ele>1262.33</ele>
        <time>2013-08-10T09:36:47Z</time>
      </trkpt>
      <trkpt lat="45.38222" lon="6.30661">
        <ele>1262.01</ele>
        <time>2013-08-10T09:36:49Z</time>
      </trkpt>
      <trkpt lat="45.3821" lon="6.30638">
        <ele>1260.9</ele>
        <time>2013-08-10T09:36:51Z</time>
      </trkpt>
      <trkpt lat="45.38197" lon="6.30614">
        <ele>1259.37</ele>
        <time>2013-08-10T09:36:53Z</time>
      </trkpt>
      <trkpt lat="45.38185" lon="6.30591">
        <ele>1257.76</ele>
        <time>2013-08-10T09:36:55Z</time>
      </trkpt>
      <trkpt lat="45.38174" lon="6.30569">
        <ele>1256.48</ele>
        <time>2013-08-10T09:36:57Z</time>
      </trkpt>
      <trkpt lat="45.38163" lon="6.30546">
        <ele>1255.41</ele>
        <time>2013-08-10T09:36:59Z</time>
      </trkpt>
      <trkpt lat="45.38153" lon="6.30522">
        <ele>1254.6</ele>
        <time>2013-08-10T09:37:01Z</time>
      </trkpt>
      <trkpt lat="45.38143" lon="6.30496">
        <ele>1253.83</ele>
        <time>2013-08-10T09:37:03Z</time>
      </trkpt>
      <trkpt lat="45.38132" lon="6.30472">
        <ele>1252.92</ele>
        <time>2013-08-10T09:37:05Z</time>
      </trkpt>
      <trkpt lat="45.38118" lon="6.30443">
        <ele>1251.35</ele>
        <time>2013-08-10T09:37:08Z</time>
      </trkpt>
      <trkpt lat="45.38125" lon="6.30411">
        <ele>1250.4</ele>
        <time>2013-08-10T09:37:11Z</time>
      </trkpt>
      <trkpt lat="45.38138" lon="6.30378">
        <ele>1249.61</ele>
        <time>2013-08-10T09:37:14Z</time>
      </trkpt>
      <trkpt lat="45.38138" lon="6.30344">
        <ele>1248.58</ele>
        <time>2013-08-10T09:37:17Z</time>
      </trkpt>
      <trkpt lat="45.38122" lon="6.30315">
        <ele>1247.42</ele>
        <time>2013-08-10T09:37:20Z</time>
      </trkpt>
      <trkpt lat="45.38107" lon="6.3029">
        <ele>1246.56</ele>
        <time>2013-08-10T09:37:23Z</time>
      </trkpt>
      <trkpt lat="45.38093" lon="6.30265">
        <ele>1246.14</ele>
        <time>2013-08-10T09:37:26Z</time>
      </trkpt>
      <trkpt lat="45.38077" lon="6.30239">
        <ele>1245.8</ele>
        <time>2013-08-10T09:37:29Z</time>
      </trkpt>
      <trkpt lat="45.38063" lon="6.30216">
        <ele>1245.18</ele>
        <time>2013-08-10T09:37:32Z</time>
      </trkpt>
      <trkpt lat="45.3805" lon="6.30193">
        <ele>1245.17</ele>
        <time>2013-08-10T09:37:36Z</time>
      </trkpt>
      <trkpt lat="45.38032" lon="6.30209">
        <ele>1247.75</ele>
        <time>2013-08-10T09:37:51Z</time>
      </trkpt>
      <trkpt lat="45.38011" lon="6.30218">
        <ele>1248.53</ele>
        <time>2013-08-10T09:37:55Z</time>
      </trkpt>
      <trkpt lat="45.37991" lon="6.30219">
        <ele>1248.5</ele>
        <time>2013-08-10T09:37:58Z</time>
      </trkpt>
      <trkpt lat="45.37971" lon="6.30212">
        <ele>1248.05</ele>
        <time>2013-08-10T09:38:02Z</time>
      </trkpt>
      <trkpt lat="45.37963" lon="6.30186">
        <ele>1247.86</ele>
        <time>2013-08-10T09:40:13Z</time>
      </trkpt>
      <trkpt lat="45.37962" lon="6.30156">
        <ele>1247.68</ele>
        <time>2013-08-10T09:40:18Z</time>
      </trkpt>
      <trkpt lat="45.37963" lon="6.30128">
        <ele>1247.34</ele>
        <time>2013-08-10T09:40:22Z</time>
      </trkpt>
      <trkpt lat="45.37967" lon="6.30101">
        <ele>1247.44</ele>
        <time>2013-08-10T09:40:26Z</time>
      </trkpt>
      <trkpt lat="45.37977" lon="6.30076">
        <ele>1248.11</ele>
        <time>2013-08-10T09:40:30Z</time>
      </trkpt>
      <trkpt lat="45.37991" lon="6.30055">
        <ele>1249.21</ele>
        <time>2013-08-10T09:40:34Z</time>
      </trkpt>
      <trkpt lat="45.38003" lon="6.30035">
        <ele>1250.41</ele>
        <time>2013-08-10T09:40:38Z</time>
      </trkpt>
      <trkpt lat="45.38012" lon="6.30013">
        <ele>1251.41</ele>
        <time>2013-08-10T09:40:42Z</time>
      </trkpt>
      <trkpt lat="45.3802" lon="6.29984">
        <ele>1252.16</ele>
        <time>2013-08-10T09:40:47Z</time>
      </trkpt>
      <trkpt lat="45.38028" lon="6.29958">
        <ele>1252.45</ele>
        <time>2013-08-10T09:40:52Z</time>
      </trkpt>
      <trkpt lat="45.38047" lon="6.29948">
        <ele>1252.94</ele>
        <time>2013-08-10T09:40:57Z</time>
      </trkpt>
      <trkpt lat="45.38066" lon="6.29941">
        <ele>1253.68</ele>
        <time>2013-08-10T09:41:02Z</time>
      </trkpt>
      <trkpt lat="45.38084" lon="6.29928">
        <ele>1254.21</ele>
        <time>2013-08-10T09:41:08Z</time>
      </trkpt>
      <trkpt lat="45.381" lon="6.29911">
        <ele>1254.53</ele>
        <time>2013-08-10T09:41:17Z</time>
      </trkpt>
      <trkpt lat="45.38118" lon="6.29903">
        <ele>1255.32</ele>
        <time>2013-08-10T09:41:26Z</time>
      </trkpt>
      <trkpt lat="45.38136" lon="6.2991">
        <ele>1255.86</ele>
        <time>2013-08-10T09:41:34Z</time>
      </trkpt>
      <trkpt lat="45.38153" lon="6.29925">
        <ele>1255.64</ele>
        <time>2013-08-10T09:41:41Z</time>
      </trkpt>
      <trkpt lat="45.3817" lon="6.29931">
        <ele>1255.42</ele>
        <time>2013-08-10T09:41:49Z</time>
      </trkpt>
      <trkpt lat="45.38188" lon="6.29939">
        <ele>1255.36</ele>
        <time>2013-08-10T09:41:57Z</time>
      </trkpt>
      <trkpt lat="45.38208" lon="6.29935">
        <ele>1255.45</ele>
        <time>2013-08-10T09:42:05Z</time>
      </trkpt>
      <trkpt lat="45.38226" lon="6.29932">
        <ele>1255.94</ele>
        <time>2013-08-10T09:42:11Z</time>
      </trkpt>
      <trkpt lat="45.38245" lon="6.29921">
        <ele>1256.45</ele>
        <time>2013-08-10T09:42:17Z</time>
      </trkpt>
      <trkpt lat="45.38262" lon="6.29904">
        <ele>1256.75</ele>
        <time>2013-08-10T09:42:23Z</time>
      </trkpt>
      <trkpt lat="45.3827" lon="6.29877">
        <ele>1257.4</ele>
        <time>2013-08-10T09:42:30Z</time>
      </trkpt>
      <trkpt lat="45.38285" lon="6.29861">
        <ele>1258.35</ele>
        <time>2013-08-10T09:42:37Z</time>
      </trkpt>
      <trkpt lat="45.38304" lon="6.29859">
        <ele>1259.41</ele>
        <time>2013-08-10T09:42:43Z</time>
      </trkpt>
      <trkpt lat="45.38324" lon="6.29858">
        <ele>1260.08</ele>
        <time>2013-08-10T09:42:49Z</time>
      </trkpt>
      <trkpt lat="45.38346" lon="6.29856">
        <ele>1260.63</ele>
        <time>2013-08-10T09:42:55Z</time>
      </trkpt>
      <trkpt lat="45.38362" lon="6.29841">
        <ele>1261.1</ele>
        <time>2013-08-10T09:42:59Z</time>
      </trkpt>
      <trkpt lat="45.38376" lon="6.29821">
        <ele>1262.04</ele>
        <time>2013-08-10T09:43:05Z</time>
      </trkpt>
      <trkpt lat="45.38392" lon="6.2981">
        <ele>1263.55</ele>
        <time>2013-08-10T09:43:14Z</time>
      </trkpt>
      <trkpt lat="45.3841" lon="6.29807">
        <ele>1264.64</ele>
        <time>2013-08-10T09:43:22Z</time>
      </trkpt>
      <trkpt lat="45.38429" lon="6.29808">
        <ele>1265.66</ele>
        <time>2013-08-10T09:43:29Z</time>
      </trkpt>
      <trkpt lat="45.38447" lon="6.2981">
        <ele>1266.34</ele>
        <time>2013-08-10T09:43:35Z</time>
      </trkpt>
      <trkpt lat="45.38466" lon="6.29821">
        <ele>1266.63</ele>
        <time>2013-08-10T09:43:41Z</time>
      </trkpt>
      <trkpt lat="45.38484" lon="6.29839">
        <ele>1266.49</ele>
        <time>2013-08-10T09:43:46Z</time>
      </trkpt>
      <trkpt lat="45.38497" lon="6.29863">
        <ele>1265.72</ele>
        <time>2013-08-10T09:43:51Z</time>
      </trkpt>
      <trkpt lat="45.38517" lon="6.29875">
        <ele>1264.4</ele>
        <time>2013-08-10T09:43:55Z</time>
      </trkpt>
      <trkpt lat="45.38542" lon="6.29887">
        <ele>1262.6</ele>
        <time>2013-08-10T09:43:59Z</time>
      </trkpt>
      <trkpt lat="45.38563" lon="6.29894">
        <ele>1261.96</ele>
        <time>2013-08-10T09:44:02Z</time>
      </trkpt>
      <trkpt lat="45.38583" lon="6.29894">
        <ele>1261.58</ele>
        <time>2013-08-10T09:44:07Z</time>
      </trkpt>
      <trkpt lat="45.38603" lon="6.29885">
        <ele>1260.94</ele>
        <time>2013-08-10T09:44:12Z</time>
      </trkpt>
      <trkpt lat="45.38618" lon="6.29869">
        <ele>1259.44</ele>
        <time>2013-08-10T09:44:16Z</time>
      </trkpt>
      <trkpt lat="45.38636" lon="6.29855">
        <ele>1256.81</ele>
        <time>2013-08-10T09:44:20Z</time>
      </trkpt>
      <trkpt lat="45.38649" lon="6.29833">
        <ele>1252.31</ele>
        <time>2013-08-10T09:44:25Z</time>
      </trkpt>
      <trkpt lat="45.38662" lon="6.29813">
        <ele>1249.52</ele>
        <time>2013-08-10T09:44:29Z</time>
      </trkpt>
      <trkpt lat="45.38787" lon="6.29728">
        <ele>1253.63</ele>
        <time>2013-08-10T09:46:11Z</time>
      </trkpt>
      <trkpt lat="45.38825" lon="6.29742">
        <ele>1240.99</ele>
        <time>2013-08-10T09:46:12Z</time>
      </trkpt>
      <trkpt lat="45.3884" lon="6.29772">
        <ele>1228.88</ele>
        <time>2013-08-10T09:46:25Z</time>
      </trkpt>
      <trkpt lat="45.38859" lon="6.29778">
        <ele>1225.89</ele>
        <time>2013-08-10T09:46:31Z</time>
      </trkpt>
      <trkpt lat="45.38881" lon="6.29784">
        <ele>1220.61</ele>
        <time>2013-08-10T09:46:36Z</time>
      </trkpt>
      <trkpt lat="45.38902" lon="6.29782">
        <ele>1219.34</ele>
        <time>2013-08-10T09:46:41Z</time>
      </trkpt>
      <trkpt lat="45.38921" lon="6.29781">
        <ele>1218.08</ele>
        <time>2013-08-10T09:46:54Z</time>
      </trkpt>
      <trkpt lat="45.3894" lon="6.29779">
        <ele>1217.88</ele>
        <time>2013-08-10T09:47:02Z</time>
      </trkpt>
      <trkpt lat="45.38959" lon="6.29781">
        <ele>1218.15</ele>
        <time>2013-08-10T09:47:11Z</time>
      </trkpt>
      <trkpt lat="45.38977" lon="6.29791">
        <ele>1220.31</ele>
        <time>2013-08-10T09:47:33Z</time>
      </trkpt>
      <trkpt lat="45.38995" lon="6.2979">
        <ele>1220.86</ele>
        <time>2013-08-10T09:47:41Z</time>
      </trkpt>
      <trkpt lat="45.39014" lon="6.29782">
        <ele>1221.39</ele>
        <time>2013-08-10T09:47:51Z</time>
      </trkpt>
      <trkpt lat="45.39033" lon="6.29785">
        <ele>1222.41</ele>
        <time>2013-08-10T09:48:06Z</time>
      </trkpt>
      <trkpt lat="45.39051" lon="6.29791">
        <ele>1224.23</ele>
        <time>2013-08-10T09:48:28Z</time>
      </trkpt>
      <trkpt lat="45.3907" lon="6.2979">
        <ele>1224.92</ele>
        <time>2013-08-10T09:48:37Z</time>
      </trkpt>
      <trkpt lat="45.39089" lon="6.29779">
        <ele>1225.33</ele>
        <time>2013-08-10T09:48:45Z</time>
      </trkpt>
      <trkpt lat="45.39101" lon="6.29759">
        <ele>1225.63</ele>
        <time>2013-08-10T09:48:53Z</time>
      </trkpt>
      <trkpt lat="45.39115" lon="6.29741">
        <ele>1226</ele>
        <time>2013-08-10T09:49:02Z</time>
      </trkpt>
      <trkpt lat="45.39135" lon="6.29735">
        <ele>1226.48</ele>
        <time>2013-08-10T09:49:10Z</time>
      </trkpt>
      <trkpt lat="45.39154" lon="6.29732">
        <ele>1226.9</ele>
        <time>2013-08-10T09:49:19Z</time>
      </trkpt>
      <trkpt lat="45.39174" lon="6.29736">
        <ele>1227.69</ele>
        <time>2013-08-10T09:49:28Z</time>
      </trkpt>
      <trkpt lat="45.39192" lon="6.29742">
        <ele>1228.42</ele>
        <time>2013-08-10T09:49:37Z</time>
      </trkpt>
      <trkpt lat="45.39211" lon="6.29742">
        <ele>1228.9</ele>
        <time>2013-08-10T09:49:45Z</time>
      </trkpt>
      <trkpt lat="45.39229" lon="6.29738">
        <ele>1229.27</ele>
        <time>2013-08-10T09:49:51Z</time>
      </trkpt>
      <trkpt lat="45.39248" lon="6.29738">
        <ele>1229.45</ele>
        <time>2013-08-10T09:50:00Z</time>
      </trkpt>
      <trkpt lat="45.39268" lon="6.29738">
        <ele>1229.17</ele>
        <time>2013-08-10T09:50:06Z</time>
      </trkpt>
      <trkpt lat="45.39288" lon="6.29734">
        <ele>1228.12</ele>
        <time>2013-08-10T09:50:13Z</time>
      </trkpt>
      <trkpt lat="45.39274" lon="6.29714">
        <ele>1225.29</ele>
        <time>2013-08-10T09:50:24Z</time>
      </trkpt>
      <trkpt lat="45.39293" lon="6.29705">
        <ele>1218.69</ele>
        <time>2013-08-10T09:50:56Z</time>
      </trkpt>
      <trkpt lat="45.39312" lon="6.29702">
        <ele>1215.39</ele>
        <time>2013-08-10T09:51:05Z</time>
      </trkpt>
      <trkpt lat="45.39326" lon="6.29684">
        <ele>1212.69</ele>
        <time>2013-08-10T09:51:12Z</time>
      </trkpt>
      <trkpt lat="45.39343" lon="6.29672">
        <ele>1209.36</ele>
        <time>2013-08-10T09:51:21Z</time>
      </trkpt>
      <trkpt lat="45.39361" lon="6.29673">
        <ele>1205.71</ele>
        <time>2013-08-10T09:51:30Z</time>
      </trkpt>
      <trkpt lat="45.39381" lon="6.29671">
        <ele>1202.35</ele>
        <time>2013-08-10T09:51:38Z</time>
      </trkpt>
      <trkpt lat="45.394" lon="6.29674">
        <ele>1199.24</ele>
        <time>2013-08-10T09:51:45Z</time>
      </trkpt>
      <trkpt lat="45.3942" lon="6.29679">
        <ele>1195.84</ele>
        <time>2013-08-10T09:51:53Z</time>
      </trkpt>
      <trkpt lat="45.39438" lon="6.2967">
        <ele>1193.69</ele>
        <time>2013-08-10T09:51:59Z</time>
      </trkpt>
      <trkpt lat="45.39455" lon="6.29662">
        <ele>1191.99</ele>
        <time>2013-08-10T09:52:05Z</time>
      </trkpt>
      <trkpt lat="45.39472" lon="6.29648">
        <ele>1188.32</ele>
        <time>2013-08-10T09:52:16Z</time>
      </trkpt>
      <trkpt lat="45.39491" lon="6.29641">
        <ele>1185.11</ele>
        <time>2013-08-10T09:52:24Z</time>
      </trkpt>
      <trkpt lat="45.39508" lon="6.29628">
        <ele>1180.25</ele>
        <time>2013-08-10T09:52:35Z</time>
      </trkpt>
      <trkpt lat="45.39526" lon="6.29618">
        <ele>1175.07</ele>
        <time>2013-08-10T09:52:47Z</time>
      </trkpt>
      <trkpt lat="45.39545" lon="6.29624">
        <ele>1170.15</ele>
        <time>2013-08-10T09:52:57Z</time>
      </trkpt>
      <trkpt lat="45.39564" lon="6.29618">
        <ele>1164.69</ele>
        <time>2013-08-10T09:53:09Z</time>
      </trkpt>
      <trkpt lat="45.39582" lon="6.29613">
        <ele>1160.92</ele>
        <time>2013-08-10T09:53:17Z</time>
      </trkpt>
      <trkpt lat="45.39601" lon="6.29621">
        <ele>1156.84</ele>
        <time>2013-08-10T09:53:25Z</time>
      </trkpt>
      <trkpt lat="45.39621" lon="6.29624">
        <ele>1154.09</ele>
        <time>2013-08-10T09:53:31Z</time>
      </trkpt>
      <trkpt lat="45.39639" lon="6.29621">
        <ele>1151.66</ele>
        <time>2013-08-10T09:53:36Z</time>
      </trkpt>
      <trkpt lat="45.3966" lon="6.29623">
        <ele>1148.92</ele>
        <time>2013-08-10T09:53:41Z</time>
      </trkpt>
      <trkpt lat="45.39678" lon="6.29626">
        <ele>1145.91</ele>
        <time>2013-08-10T09:53:46Z</time>
      </trkpt>
      <trkpt lat="45.39696" lon="6.29636">
        <ele>1141.25</ele>
        <time>2013-08-10T09:53:54Z</time>
      </trkpt>
      <trkpt lat="45.39714" lon="6.2964">
        <ele>1137.95</ele>
        <time>2013-08-10T09:54:00Z</time>
      </trkpt>
      <trkpt lat="45.39733" lon="6.29641">
        <ele>1134.58</ele>
        <time>2013-08-10T09:54:06Z</time>
      </trkpt>
      <trkpt lat="45.39754" lon="6.29648">
        <ele>1131.51</ele>
        <time>2013-08-10T09:54:12Z</time>
      </trkpt>
      <trkpt lat="45.39774" lon="6.2965">
        <ele>1128.59</ele>
        <time>2013-08-10T09:54:18Z</time>
      </trkpt>
      <trkpt lat="45.39795" lon="6.2965">
        <ele>1123.58</ele>
        <time>2013-08-10T09:54:27Z</time>
      </trkpt>
      <trkpt lat="45.39814" lon="6.29637">
        <ele>1116.8</ele>
        <time>2013-08-10T09:54:47Z</time>
      </trkpt>
      <trkpt lat="45.39834" lon="6.29637">
        <ele>1113.96</ele>
        <time>2013-08-10T09:54:54Z</time>
      </trkpt>
      <trkpt lat="45.39853" lon="6.2964">
        <ele>1109.12</ele>
        <time>2013-08-10T09:55:03Z</time>
      </trkpt>
      <trkpt lat="45.39871" lon="6.29639">
        <ele>1093.22</ele>
        <time>2013-08-10T09:55:58Z</time>
      </trkpt>
      <trkpt lat="45.39891" lon="6.2963">
        <ele>1089.73</ele>
        <time>2013-08-10T09:56:07Z</time>
      </trkpt>
      <trkpt lat="45.39911" lon="6.29631">
        <ele>1086.99</ele>
        <time>2013-08-10T09:56:16Z</time>
      </trkpt>
      <trkpt lat="45.39928" lon="6.29643">
        <ele>1084.87</ele>
        <time>2013-08-10T09:56:24Z</time>
      </trkpt>
      <trkpt lat="45.39947" lon="6.29656">
        <ele>1082.64</ele>
        <time>2013-08-10T09:56:34Z</time>
      </trkpt>
      <trkpt lat="45.39966" lon="6.29665">
        <ele>1081.4</ele>
        <time>2013-08-10T09:56:44Z</time>
      </trkpt>
      <trkpt lat="45.39984" lon="6.29669">
        <ele>1080.4</ele>
        <time>2013-08-10T09:56:55Z</time>
      </trkpt>
      <trkpt lat="45.39996" lon="6.29649">
        <ele>1078.79</ele>
        <time>2013-08-10T09:57:44Z</time>
      </trkpt>
      <trkpt lat="45.40012" lon="6.29635">
        <ele>1078.03</ele>
        <time>2013-08-10T09:57:51Z</time>
      </trkpt>
      <trkpt lat="45.40031" lon="6.29632">
        <ele>1075.93</ele>
        <time>2013-08-10T09:58:02Z</time>
      </trkpt>
      <trkpt lat="45.40052" lon="6.29624">
        <ele>1074.52</ele>
        <time>2013-08-10T09:58:08Z</time>
      </trkpt>
      <trkpt lat="45.4007" lon="6.29617">
        <ele>1072.77</ele>
        <time>2013-08-10T09:58:14Z</time>
      </trkpt>
      <trkpt lat="45.40086" lon="6.29604">
        <ele>1070.21</ele>
        <time>2013-08-10T09:58:21Z</time>
      </trkpt>
      <trkpt lat="45.40104" lon="6.29606">
        <ele>1067.62</ele>
        <time>2013-08-10T09:58:27Z</time>
      </trkpt>
      <trkpt lat="45.40124" lon="6.29597">
        <ele>1064.49</ele>
        <time>2013-08-10T09:58:34Z</time>
      </trkpt>
      <trkpt lat="45.4014" lon="6.29583">
        <ele>1059.71</ele>
        <time>2013-08-10T09:58:45Z</time>
      </trkpt>
      <trkpt lat="45.40153" lon="6.29561">
        <ele>1056.55</ele>
        <time>2013-08-10T09:58:52Z</time>
      </trkpt>
      <trkpt lat="45.40168" lon="6.29543">
        <ele>1051.07</ele>
        <time>2013-08-10T09:59:03Z</time>
      </trkpt>
      <trkpt lat="45.40189" lon="6.29544">
        <ele>1047.03</ele>
        <time>2013-08-10T09:59:11Z</time>
      </trkpt>
      <trkpt lat="45.40207" lon="6.29537">
        <ele>1043.18</ele>
        <time>2013-08-10T09:59:18Z</time>
      </trkpt>
      <trkpt lat="45.40227" lon="6.29528">
        <ele>1038.69</ele>
        <time>2013-08-10T09:59:26Z</time>
      </trkpt>
      <trkpt lat="45.40247" lon="6.29524">
        <ele>1035.93</ele>
        <time>2013-08-10T09:59:31Z</time>
      </trkpt>
      <trkpt lat="45.40266" lon="6.29521">
        <ele>1032.41</ele>
        <time>2013-08-10T09:59:38Z</time>
      </trkpt>
      <trkpt lat="45.40284" lon="6.29528">
        <ele>1027.44</ele>
        <time>2013-08-10T09:59:49Z</time>
      </trkpt>
      <trkpt lat="45.40304" lon="6.2952">
        <ele>1022.02</ele>
        <time>2013-08-10T10:00:01Z</time>
      </trkpt>
      <trkpt lat="45.40323" lon="6.29514">
        <ele>1018.67</ele>
        <time>2013-08-10T10:00:08Z</time>
      </trkpt>
      <trkpt lat="45.4034" lon="6.29526">
        <ele>1015.89</ele>
        <time>2013-08-10T10:00:16Z</time>
      </trkpt>
      <trkpt lat="45.40357" lon="6.29533">
        <ele>1013.79</ele>
        <time>2013-08-10T10:00:24Z</time>
      </trkpt>
      <trkpt lat="45.40376" lon="6.29529">
        <ele>1011.31</ele>
        <time>2013-08-10T10:00:35Z</time>
      </trkpt>
      <trkpt lat="45.40395" lon="6.29528">
        <ele>1009.87</ele>
        <time>2013-08-10T10:00:42Z</time>
      </trkpt>
      <trkpt lat="45.40413" lon="6.29535">
        <ele>1007.83</ele>
        <time>2013-08-10T10:00:51Z</time>
      </trkpt>
      <trkpt lat="45.40432" lon="6.29539">
        <ele>1006.78</ele>
        <time>2013-08-10T10:01:00Z</time>
      </trkpt>
      <trkpt lat="45.40451" lon="6.29541">
        <ele>1006.35</ele>
        <time>2013-08-10T10:01:09Z</time>
      </trkpt>
      <trkpt lat="45.40471" lon="6.2954">
        <ele>1005.79</ele>
        <time>2013-08-10T10:01:17Z</time>
      </trkpt>
      <trkpt lat="45.4049" lon="6.29528">
        <ele>1005.05</ele>
        <time>2013-08-10T10:01:25Z</time>
      </trkpt>
      <trkpt lat="45.40509" lon="6.29534">
        <ele>1003.79</ele>
        <time>2013-08-10T10:01:33Z</time>
      </trkpt>
      <trkpt lat="45.40529" lon="6.29536">
        <ele>1002.23</ele>
        <time>2013-08-10T10:01:41Z</time>
      </trkpt>
      <trkpt lat="45.40545" lon="6.2955">
        <ele>1000.95</ele>
        <time>2013-08-10T10:01:48Z</time>
      </trkpt>
      <trkpt lat="45.40557" lon="6.29571">
        <ele>998.97</ele>
        <time>2013-08-10T10:01:57Z</time>
      </trkpt>
      <trkpt lat="45.40573" lon="6.29588">
        <ele>996.55</ele>
        <time>2013-08-10T10:02:19Z</time>
      </trkpt>
      <trkpt lat="45.40592" lon="6.29583">
        <ele>996.05</ele>
        <time>2013-08-10T10:02:27Z</time>
      </trkpt>
      <trkpt lat="45.40609" lon="6.2957">
        <ele>994.6</ele>
        <time>2013-08-10T10:02:37Z</time>
      </trkpt>
      <trkpt lat="45.40629" lon="6.29562">
        <ele>991.12</ele>
        <time>2013-08-10T10:03:09Z</time>
      </trkpt>
      <trkpt lat="45.40648" lon="6.2956">
        <ele>990.04</ele>
        <time>2013-08-10T10:03:17Z</time>
      </trkpt>
      <trkpt lat="45.40667" lon="6.29565">
        <ele>988.31</ele>
        <time>2013-08-10T10:03:25Z</time>
      </trkpt>
      <trkpt lat="45.40685" lon="6.29562">
        <ele>984.5</ele>
        <time>2013-08-10T10:03:47Z</time>
      </trkpt>
      <trkpt lat="45.407" lon="6.29546">
        <ele>984.22</ele>
        <time>2013-08-10T10:04:05Z</time>
      </trkpt>
      <trkpt lat="45.40706" lon="6.2952">
        <ele>985.67</ele>
        <time>2013-08-10T10:04:24Z</time>
      </trkpt>
      <trkpt lat="45.40717" lon="6.29498">
        <ele>985.37</ele>
        <time>2013-08-10T10:04:33Z</time>
      </trkpt>
      <trkpt lat="45.40734" lon="6.29485">
        <ele>984.47</ele>
        <time>2013-08-10T10:04:43Z</time>
      </trkpt>
      <trkpt lat="45.40753" lon="6.29484">
        <ele>984.01</ele>
        <time>2013-08-10T10:04:56Z</time>
      </trkpt>
      <trkpt lat="45.40771" lon="6.29479">
        <ele>983.26</ele>
        <time>2013-08-10T10:05:20Z</time>
      </trkpt>
      <trkpt lat="45.40789" lon="6.29471">
        <ele>983.04</ele>
        <time>2013-08-10T10:05:28Z</time>
      </trkpt>
      <trkpt lat="45.40808" lon="6.29468">
        <ele>982.47</ele>
        <time>2013-08-10T10:05:34Z</time>
      </trkpt>
      <trkpt lat="45.40828" lon="6.29467">
        <ele>981.82</ele>
        <time>2013-08-10T10:05:39Z</time>
      </trkpt>
      <trkpt lat="45.40848" lon="6.2947">
        <ele>980.61</ele>
        <time>2013-08-10T10:05:44Z</time>
      </trkpt>
      <trkpt lat="45.40867" lon="6.29473">
        <ele>977</ele>
        <time>2013-08-10T10:05:49Z</time>
      </trkpt>
      <trkpt lat="45.40885" lon="6.29476">
        <ele>973.48</ele>
        <time>2013-08-10T10:05:58Z</time>
      </trkpt>
      <trkpt lat="45.40905" lon="6.29474">
        <ele>971.11</ele>
        <time>2013-08-10T10:06:05Z</time>
      </trkpt>
      <trkpt lat="45.40926" lon="6.2947">
        <ele>969.46</ele>
        <time>2013-08-10T10:06:11Z</time>
      </trkpt>
      <trkpt lat="45.40945" lon="6.29466">
        <ele>968.3</ele>
        <time>2013-08-10T10:06:15Z</time>
      </trkpt>
      <trkpt lat="45.40967" lon="6.29469">
        <ele>966.81</ele>
        <time>2013-08-10T10:06:20Z</time>
      </trkpt>
      <trkpt lat="45.40985" lon="6.29477">
        <ele>962.86</ele>
        <time>2013-08-10T10:06:24Z</time>
      </trkpt>
      <trkpt lat="45.41001" lon="6.29495">
        <ele>959.98</ele>
        <time>2013-08-10T10:06:29Z</time>
      </trkpt>
      <trkpt lat="45.41017" lon="6.29511">
        <ele>957.92</ele>
        <time>2013-08-10T10:06:39Z</time>
      </trkpt>
      <trkpt lat="45.41036" lon="6.29503">
        <ele>956.86</ele>
        <time>2013-08-10T10:06:49Z</time>
      </trkpt>
      <trkpt lat="45.41055" lon="6.29496">
        <ele>956.19</ele>
        <time>2013-08-10T10:06:54Z</time>
      </trkpt>
      <trkpt lat="45.41073" lon="6.29488">
        <ele>955.23</ele>
        <time>2013-08-10T10:06:59Z</time>
      </trkpt>
      <trkpt lat="45.41089" lon="6.29471">
        <ele>952.66</ele>
        <time>2013-08-10T10:07:12Z</time>
      </trkpt>
      <trkpt lat="45.4111" lon="6.29471">
        <ele>951.11</ele>
        <time>2013-08-10T10:07:19Z</time>
      </trkpt>
      <trkpt lat="45.41128" lon="6.29467">
        <ele>948.93</ele>
        <time>2013-08-10T10:07:28Z</time>
      </trkpt>
      <trkpt lat="45.41139" lon="6.29487">
        <ele>944.58</ele>
        <time>2013-08-10T10:08:34Z</time>
      </trkpt>
      <trkpt lat="45.41155" lon="6.29465">
        <ele>940.69</ele>
        <time>2013-08-10T10:09:03Z</time>
      </trkpt>
      <trkpt lat="45.41164" lon="6.29443">
        <ele>937.45</ele>
        <time>2013-08-10T10:09:11Z</time>
      </trkpt>
      <trkpt lat="45.4118" lon="6.29427">
        <ele>929.53</ele>
        <time>2013-08-10T10:09:31Z</time>
      </trkpt>
      <trkpt lat="45.41199" lon="6.29427">
        <ele>927.21</ele>
        <time>2013-08-10T10:09:37Z</time>
      </trkpt>
      <trkpt lat="45.41218" lon="6.29422">
        <ele>924.11</ele>
        <time>2013-08-10T10:09:44Z</time>
      </trkpt>
      <trkpt lat="45.41235" lon="6.2941">
        <ele>919.89</ele>
        <time>2013-08-10T10:09:52Z</time>
      </trkpt>
      <trkpt lat="45.41251" lon="6.29397">
        <ele>915.52</ele>
        <time>2013-08-10T10:10:00Z</time>
      </trkpt>
      <trkpt lat="45.41261" lon="6.29374">
        <ele>899.43</ele>
        <time>2013-08-10T10:10:38Z</time>
      </trkpt>
      <trkpt lat="45.41282" lon="6.29373">
        <ele>894.74</ele>
        <time>2013-08-10T10:10:48Z</time>
      </trkpt>
      <trkpt lat="45.41302" lon="6.29381">
        <ele>892.79</ele>
        <time>2013-08-10T10:10:53Z</time>
      </trkpt>
      <trkpt lat="45.41321" lon="6.2938">
        <ele>886.07</ele>
        <time>2013-08-10T10:11:07Z</time>
      </trkpt>
      <trkpt lat="45.41337" lon="6.2937">
        <ele>879.81</ele>
        <time>2013-08-10T10:11:27Z</time>
      </trkpt>
      <trkpt lat="45.41354" lon="6.29348">
        <ele>877.84</ele>
        <time>2013-08-10T10:11:34Z</time>
      </trkpt>
      <trkpt lat="45.41369" lon="6.2933">
        <ele>876.51</ele>
        <time>2013-08-10T10:11:38Z</time>
      </trkpt>
      <trkpt lat="45.41388" lon="6.29325">
        <ele>873.4</ele>
        <time>2013-08-10T10:11:46Z</time>
      </trkpt>
      <trkpt lat="45.41406" lon="6.29325">
        <ele>870.86</ele>
        <time>2013-08-10T10:11:52Z</time>
      </trkpt>
      <trkpt lat="45.41424" lon="6.29318">
        <ele>868.08</ele>
        <time>2013-08-10T10:11:58Z</time>
      </trkpt>
      <trkpt lat="45.41444" lon="6.2931">
        <ele>865.99</ele>
        <time>2013-08-10T10:12:03Z</time>
      </trkpt>
      <trkpt lat="45.41462" lon="6.293">
        <ele>861.12</ele>
        <time>2013-08-10T10:12:08Z</time>
      </trkpt>
      <trkpt lat="45.41482" lon="6.29291">
        <ele>859.06</ele>
        <time>2013-08-10T10:12:13Z</time>
      </trkpt>
      <trkpt lat="45.41498" lon="6.29277">
        <ele>857.77</ele>
        <time>2013-08-10T10:12:17Z</time>
      </trkpt>
      <trkpt lat="45.41487" lon="6.29256">
        <ele>853.91</ele>
        <time>2013-08-10T10:12:21Z</time>
      </trkpt>
      <trkpt lat="45.41488" lon="6.29229">
        <ele>847.52</ele>
        <time>2013-08-10T10:12:29Z</time>
      </trkpt>
      <trkpt lat="45.41505" lon="6.29216">
        <ele>845.76</ele>
        <time>2013-08-10T10:12:34Z</time>
      </trkpt>
      <trkpt lat="45.41526" lon="6.29211">
        <ele>842.33</ele>
        <time>2013-08-10T10:12:38Z</time>
      </trkpt>
      <trkpt lat="45.41546" lon="6.29197">
        <ele>836.64</ele>
        <time>2013-08-10T10:12:42Z</time>
      </trkpt>
      <trkpt lat="45.41553" lon="6.29172">
        <ele>832.87</ele>
        <time>2013-08-10T10:12:47Z</time>
      </trkpt>
      <trkpt lat="45.41561" lon="6.29142">
        <ele>827.13</ele>
        <time>2013-08-10T10:12:51Z</time>
      </trkpt>
      <trkpt lat="45.41581" lon="6.29136">
        <ele>823.9</ele>
        <time>2013-08-10T10:12:56Z</time>
      </trkpt>
      <trkpt lat="45.416" lon="6.29139">
        <ele>821.19</ele>
        <time>2013-08-10T10:13:00Z</time>
      </trkpt>
      <trkpt lat="45.41621" lon="6.29151">
        <ele>817.55</ele>
        <time>2013-08-10T10:13:04Z</time>
      </trkpt>
      <trkpt lat="45.41642" lon="6.29157">
        <ele>814.41</ele>
        <time>2013-08-10T10:13:09Z</time>
      </trkpt>
      <trkpt lat="45.41665" lon="6.29163">
        <ele>809.31</ele>
        <time>2013-08-10T10:13:13Z</time>
      </trkpt>
      <trkpt lat="45.41683" lon="6.29175">
        <ele>805.68</ele>
        <time>2013-08-10T10:13:16Z</time>
      </trkpt>
      <trkpt lat="45.41701" lon="6.29185">
        <ele>802.96</ele>
        <time>2013-08-10T10:13:19Z</time>
      </trkpt>
      <trkpt lat="45.4172" lon="6.29195">
        <ele>800.15</ele>
        <time>2013-08-10T10:13:23Z</time>
      </trkpt>
      <trkpt lat="45.41737" lon="6.29205">
        <ele>795.74</ele>
        <time>2013-08-10T10:13:51Z</time>
      </trkpt>
      <trkpt lat="45.41756" lon="6.2921">
        <ele>793.84</ele>
        <time>2013-08-10T10:14:00Z</time>
      </trkpt>
      <trkpt lat="45.41778" lon="6.29214">
        <ele>790.87</ele>
        <time>2013-08-10T10:14:04Z</time>
      </trkpt>
      <trkpt lat="45.41799" lon="6.29215">
        <ele>788.9</ele>
        <time>2013-08-10T10:14:09Z</time>
      </trkpt>
      <trkpt lat="45.41819" lon="6.29202">
        <ele>785.4</ele>
        <time>2013-08-10T10:14:14Z</time>
      </trkpt>
      <trkpt lat="45.41826" lon="6.29177">
        <ele>783.12</ele>
        <time>2013-08-10T10:14:22Z</time>
      </trkpt>
      <trkpt lat="45.41829" lon="6.29152">
        <ele>781.83</ele>
        <time>2013-08-10T10:14:27Z</time>
      </trkpt>
      <trkpt lat="45.41842" lon="6.29131">
        <ele>779.6</ele>
        <time>2013-08-10T10:14:32Z</time>
      </trkpt>
      <trkpt lat="45.41856" lon="6.29109">
        <ele>772.93</ele>
        <time>2013-08-10T10:14:36Z</time>
      </trkpt>
      <trkpt lat="45.41874" lon="6.291">
        <ele>768.74</ele>
        <time>2013-08-10T10:14:41Z</time>
      </trkpt>
      <trkpt lat="45.41892" lon="6.29096">
        <ele>765.35</ele>
        <time>2013-08-10T10:14:49Z</time>
      </trkpt>
      <trkpt lat="45.4191" lon="6.29094">
        <ele>757.78</ele>
        <time>2013-08-10T10:15:09Z</time>
      </trkpt>
      <trkpt lat="45.42064" lon="6.29202">
        <ele>722.19</ele>
        <time>2013-08-10T10:16:38Z</time>
      </trkpt>
      <trkpt lat="45.42028" lon="6.29227">
        <ele>718.79</ele>
        <time>2013-08-10T10:16:39Z</time>
      </trkpt>
      <trkpt lat="45.41995" lon="6.29245">
        <ele>711.56</ele>
        <time>2013-08-10T10:16:40Z</time>
      </trkpt>
      <trkpt lat="45.42014" lon="6.2925">
        <ele>698.22</ele>
        <time>2013-08-10T10:16:59Z</time>
      </trkpt>
      <trkpt lat="45.42022" lon="6.29274">
        <ele>690.08</ele>
        <time>2013-08-10T10:17:09Z</time>
      </trkpt>
      <trkpt lat="45.42028" lon="6.2925">
        <ele>688.81</ele>
        <time>2013-08-10T10:17:37Z</time>
      </trkpt>
      <trkpt lat="45.42028" lon="6.29224">
        <ele>687.7</ele>
        <time>2013-08-10T10:17:44Z</time>
      </trkpt>
      <trkpt lat="45.42029" lon="6.29195">
        <ele>678.28</ele>
        <time>2013-08-10T10:18:53Z</time>
      </trkpt>
      <trkpt lat="45.42034" lon="6.29169">
        <ele>674.32</ele>
        <time>2013-08-10T10:19:03Z</time>
      </trkpt>
      <trkpt lat="45.42033" lon="6.29143">
        <ele>668.39</ele>
        <time>2013-08-10T10:19:25Z</time>
      </trkpt>
      <trkpt lat="45.42045" lon="6.29118">
        <ele>663.7</ele>
        <time>2013-08-10T10:19:28Z</time>
      </trkpt>
      <trkpt lat="45.42058" lon="6.29099">
        <ele>658.41</ele>
        <time>2013-08-10T10:19:31Z</time>
      </trkpt>
      <trkpt lat="45.42049" lon="6.29067">
        <ele>651.7</ele>
        <time>2013-08-10T10:19:35Z</time>
      </trkpt>
      <trkpt lat="45.42031" lon="6.29038">
        <ele>648.28</ele>
        <time>2013-08-10T10:19:38Z</time>
      </trkpt>
      <trkpt lat="45.42017" lon="6.29016">
        <ele>646.74</ele>
        <time>2013-08-10T10:19:40Z</time>
      </trkpt>
      <trkpt lat="45.42004" lon="6.28996">
        <ele>645.21</ele>
        <time>2013-08-10T10:19:42Z</time>
      </trkpt>
      <trkpt lat="45.41996" lon="6.28971">
        <ele>642.7</ele>
        <time>2013-08-10T10:19:45Z</time>
      </trkpt>
      <trkpt lat="45.4201" lon="6.28954">
        <ele>638.49</ele>
        <time>2013-08-10T10:19:49Z</time>
      </trkpt>
      <trkpt lat="45.42025" lon="6.28932">
        <ele>634.99</ele>
        <time>2013-08-10T10:19:52Z</time>
      </trkpt>
      <trkpt lat="45.42012" lon="6.28901">
        <ele>630</ele>
        <time>2013-08-10T10:19:56Z</time>
      </trkpt>
      <trkpt lat="45.41994" lon="6.2888">
        <ele>625.87</ele>
        <time>2013-08-10T10:19:59Z</time>
      </trkpt>
      <trkpt lat="45.41996" lon="6.28852">
        <ele>621.14</ele>
        <time>2013-08-10T10:20:02Z</time>
      </trkpt>
      <trkpt lat="45.42009" lon="6.28826">
        <ele>617.65</ele>
        <time>2013-08-10T10:20:04Z</time>
      </trkpt>
      <trkpt lat="45.42024" lon="6.28798">
        <ele>614.23</ele>
        <time>2013-08-10T10:20:06Z</time>
      </trkpt>
      <trkpt lat="45.42041" lon="6.28772">
        <ele>611.01</ele>
        <time>2013-08-10T10:20:08Z</time>
      </trkpt>
      <trkpt lat="45.42054" lon="6.28753">
        <ele>608.05</ele>
        <time>2013-08-10T10:20:10Z</time>
      </trkpt>
      <trkpt lat="45.42056" lon="6.28725">
        <ele>601.75</ele>
        <time>2013-08-10T10:20:14Z</time>
      </trkpt>
      <trkpt lat="45.42039" lon="6.28693">
        <ele>597.91</ele>
        <time>2013-08-10T10:20:17Z</time>
      </trkpt>
      <trkpt lat="45.42028" lon="6.28672">
        <ele>595.69</ele>
        <time>2013-08-10T10:20:19Z</time>
      </trkpt>
      <trkpt lat="45.42024" lon="6.28646">
        <ele>593.2</ele>
        <time>2013-08-10T10:20:21Z</time>
      </trkpt>
      <trkpt lat="45.42024" lon="6.28613">
        <ele>588.64</ele>
        <time>2013-08-10T10:20:24Z</time>
      </trkpt>
      <trkpt lat="45.42037" lon="6.28592">
        <ele>581.66</ele>
        <time>2013-08-10T10:20:29Z</time>
      </trkpt>
      <trkpt lat="45.42061" lon="6.28587">
        <ele>576.7</ele>
        <time>2013-08-10T10:20:54Z</time>
      </trkpt>
      <trkpt lat="45.42071" lon="6.28564">
        <ele>575.44</ele>
        <time>2013-08-10T10:20:57Z</time>
      </trkpt>
      <trkpt lat="45.42076" lon="6.28538">
        <ele>574.48</ele>
        <time>2013-08-10T10:20:59Z</time>
      </trkpt>
      <trkpt lat="45.4208" lon="6.28508">
        <ele>573.01</ele>
        <time>2013-08-10T10:21:01Z</time>
      </trkpt>
      <trkpt lat="45.42083" lon="6.28473">
        <ele>570.99</ele>
        <time>2013-08-10T10:21:03Z</time>
      </trkpt>
      <trkpt lat="45.42087" lon="6.28435">
        <ele>568.32</ele>
        <time>2013-08-10T10:21:05Z</time>
      </trkpt>
      <trkpt lat="45.4209" lon="6.28396">
        <ele>564.99</ele>
        <time>2013-08-10T10:21:07Z</time>
      </trkpt>
      <trkpt lat="45.42099" lon="6.28355">
        <ele>561.03</ele>
        <time>2013-08-10T10:21:09Z</time>
      </trkpt>
      <trkpt lat="45.42112" lon="6.28321">
        <ele>556.58</ele>
        <time>2013-08-10T10:21:11Z</time>
      </trkpt>
      <trkpt lat="45.42119" lon="6.28294">
        <ele>551.88</ele>
        <time>2013-08-10T10:21:13Z</time>
      </trkpt>
      <trkpt lat="45.42124" lon="6.28267">
        <ele>545.08</ele>
        <time>2013-08-10T10:21:16Z</time>
      </trkpt>
      <trkpt lat="45.42124" lon="6.28241">
        <ele>536.89</ele>
        <time>2013-08-10T10:21:33Z</time>
      </trkpt>
      <trkpt lat="45.42126" lon="6.28215">
        <ele>533.7</ele>
        <time>2013-08-10T10:21:36Z</time>
      </trkpt>
      <trkpt lat="45.42136" lon="6.28177">
        <ele>529.48</ele>
        <time>2013-08-10T10:21:39Z</time>
      </trkpt>
      <trkpt lat="45.42142" lon="6.28145">
        <ele>526.41</ele>
        <time>2013-08-10T10:21:41Z</time>
      </trkpt>
      <trkpt lat="45.42144" lon="6.2811">
        <ele>523.23</ele>
        <time>2013-08-10T10:21:43Z</time>
      </trkpt>
      <trkpt lat="45.42143" lon="6.28078">
        <ele>520.36</ele>
        <time>2013-08-10T10:21:45Z</time>
      </trkpt>
      <trkpt lat="45.42132" lon="6.28052">
        <ele>517.46</ele>
        <time>2013-08-10T10:21:47Z</time>
      </trkpt>
      <trkpt lat="45.42123" lon="6.28029">
        <ele>514.37</ele>
        <time>2013-08-10T10:21:49Z</time>
      </trkpt>
      <trkpt lat="45.42125" lon="6.27991">
        <ele>509.99</ele>
        <time>2013-08-10T10:21:52Z</time>
      </trkpt>
      <trkpt lat="45.42128" lon="6.2796">
        <ele>507.23</ele>
        <time>2013-08-10T10:21:54Z</time>
      </trkpt>
      <trkpt lat="45.42131" lon="6.27927">
        <ele>504.49</ele>
        <time>2013-08-10T10:21:56Z</time>
      </trkpt>
      <trkpt lat="45.42128" lon="6.27891">
        <ele>501.55</ele>
        <time>2013-08-10T10:21:58Z</time>
      </trkpt>
      <trkpt lat="45.42123" lon="6.27852">
        <ele>498.24</ele>
        <time>2013-08-10T10:22:00Z</time>
      </trkpt>
      <trkpt lat="45.42118" lon="6.27815">
        <ele>494.71</ele>
        <time>2013-08-10T10:22:02Z</time>
      </trkpt>
      <trkpt lat="45.42115" lon="6.27787">
        <ele>491.15</ele>
        <time>2013-08-10T10:22:04Z</time>
      </trkpt>
      <trkpt lat="45.42122" lon="6.27762">
        <ele>487.58</ele>
        <time>2013-08-10T10:22:06Z</time>
      </trkpt>
      <trkpt lat="45.4213" lon="6.27739">
        <ele>484</ele>
        <time>2013-08-10T10:22:08Z</time>
      </trkpt>
      <trkpt lat="45.42141" lon="6.27718">
        <ele>478.09</ele>
        <time>2013-08-10T10:22:12Z</time>
      </trkpt>
      <trkpt lat="45.42161" lon="6.27722">
        <ele>474.57</ele>
        <time>2013-08-10T10:22:19Z</time>
      </trkpt>
      <trkpt lat="45.4218" lon="6.27729">
        <ele>472.96</ele>
        <time>2013-08-10T10:22:24Z</time>
      </trkpt>
      <trkpt lat="45.42197" lon="6.27736">
        <ele>470.67</ele>
        <time>2013-08-10T10:22:28Z</time>
      </trkpt>
      <trkpt lat="45.42219" lon="6.27744">
        <ele>470.2</ele>
        <time>2013-08-10T10:22:33Z</time>
      </trkpt>
      <trkpt lat="45.4224" lon="6.27754">
        <ele>470.49</ele>
        <time>2013-08-10T10:22:37Z</time>
      </trkpt>
      <trkpt lat="45.42263" lon="6.27765">
        <ele>470.51</ele>
        <time>2013-08-10T10:22:41Z</time>
      </trkpt>
      <trkpt lat="45.4228" lon="6.27773">
        <ele>470.44</ele>
        <time>2013-08-10T10:22:44Z</time>
      </trkpt>
      <trkpt lat="45.42299" lon="6.27783">
        <ele>470.44</ele>
        <time>2013-08-10T10:22:47Z</time>
      </trkpt>
      <trkpt lat="45.42319" lon="6.27802">
        <ele>470.39</ele>
        <time>2013-08-10T10:22:51Z</time>
      </trkpt>
    </trkseg>
  </trk>
</gpx>